Time;durP1;ratioP1;P1;durP2;ratioP2;P2;SDS_P1;SDS_P2;PMS_P1;PMS_P2;Temp;Humidity;BMP_temperature;BMP_pressure;BME280_temperature;BME280_humidity;BME280_pressure;Samples;Min_cycle;Max_cycle;Signal;HPM_P1;HPM_P2
2023/02/16 00:01:16;;;;;;;231.45;97.90;;;;;;;-1.38;96.02;101810.50;5030297;28;20025;-66
2023/02/16 00:03:42;;;;;;;232.70;97.28;;;;;;;-1.40;95.95;101807.03;5033389;28;20124;-66
2023/02/16 00:06:13;;;;;;;229.15;100.18;;;;;;;-1.46;95.84;101815.88;5030670;28;20243;-66
2023/02/16 00:08:39;;;;;;;227.88;96.75;;;;;;;-1.35;96.00;101828.88;5035004;28;20041;-66
2023/02/16 00:13:51;;;;;;;243.85;101.30;;;;;;;-1.53;96.25;101802.84;5026930;28;20036;-66
2023/02/16 00:16:19;;;;;;;240.48;100.75;;;;;;;-1.51;95.89;101795.81;5030728;28;20116;-65
2023/02/16 00:18:46;;;;;;;235.68;99.47;;;;;;;-1.48;95.53;101811.56;5031469;28;20036;-65
2023/02/16 00:21:12;;;;;;;234.07;100.45;;;;;;;-1.49;96.11;101812.44;5031776;28;20036;-65
2023/02/16 00:23:38;;;;;;;227.05;97.95;;;;;;;-1.53;95.67;101797.59;5033039;28;20058;-65
2023/02/16 00:26:04;;;;;;;232.65;100.88;;;;;;;-1.47;95.89;101819.41;5040463;28;20767;-66
2023/02/16 00:28:30;;;;;;;239.73;103.32;;;;;;;-1.45;96.00;101825.50;5042044;28;20509;-65
2023/02/16 00:30:56;;;;;;;249.02;101.70;;;;;;;-1.52;96.27;101810.72;5041004;28;20634;-64
2023/02/16 00:33:22;;;;;;;231.13;101.40;;;;;;;-1.64;96.18;101791.63;5039431;28;20029;-65
2023/02/16 00:35:47;;;;;;;235.18;104.10;;;;;;;-1.56;96.39;101814.28;5032647;28;20431;-64
2023/02/16 00:38:13;;;;;;;260.23;110.13;;;;;;;-1.61;95.91;101810.84;5031120;28;20096;-66
2023/02/16 00:40:39;;;;;;;241.55;104.47;;;;;;;-1.58;95.35;101815.22;5036891;28;20498;-65
2023/02/16 00:43:05;;;;;;;250.25;106.53;;;;;;;-1.72;95.56;101796.13;5035312;28;20426;-67
2023/02/16 00:45:35;;;;;;;233.77;103.53;;;;;;;-1.62;95.31;101809.13;5030566;28;20029;-65
2023/02/16 00:48:01;;;;;;;240.25;104.32;;;;;;;-1.58;95.02;101826.59;5028886;28;20686;-66
2023/02/16 00:50:33;;;;;;;241.68;105.10;;;;;;;-1.63;94.96;101815.28;5026040;28;20099;-66
2023/02/16 00:53:01;;;;;;;257.35;111.47;;;;;;;-1.72;94.74;101804.00;5035946;28;20037;-66
2023/02/16 00:55:30;;;;;;;250.43;107.68;;;;;;;-1.65;94.91;101818.81;5037243;28;20471;-67
2023/02/16 00:58:07;;;;;;;245.07;106.07;;;;;;;-1.70;95.07;101816.25;5040845;28;20033;-66
2023/02/16 01:00:40;;;;;;;240.25;103.20;;;;;;;-1.84;95.14;101785.78;5029661;28;20033;-66
2023/02/16 01:03:10;;;;;;;231.87;104.73;;;;;;;-1.75;94.96;101801.41;5028470;28;20491;-67
2023/02/16 01:05:35;;;;;;;245.02;107.18;;;;;;;-1.87;94.78;101783.19;5026953;28;20100;-66
2023/02/16 01:13:27;;;;;;;207.40;92.05;;;;;;;-1.78;94.02;101806.75;5036356;28;20029;-67
2023/02/16 01:15:53;;;;;;;211.05;93.15;;;;;;;-1.96;93.73;101772.81;5040959;28;20040;-66
2023/02/16 01:18:19;;;;;;;218.25;92.07;;;;;;;-1.85;93.66;101795.44;5032869;28;20029;-66
2023/02/16 01:20:45;;;;;;;205.00;89.80;;;;;;;-2.02;93.55;101765.88;5038054;28;20037;-65
2023/02/16 01:23:11;;;;;;;195.68;87.35;;;;;;;-1.84;93.34;101798.94;5034328;28;20429;-66
2023/02/16 01:25:37;;;;;;;196.27;84.45;;;;;;;-1.85;93.58;101799.81;5041385;28;20033;-65
2023/02/16 01:28:18;;;;;;;193.95;85.35;;;;;;;-1.89;93.76;101792.84;5031234;28;20155;-64
2023/02/16 01:30:44;;;;;;;176.80;79.68;;;;;;;-1.98;93.46;101772.81;5036442;28;20491;-65
2023/02/16 01:33:09;;;;;;;182.57;81.57;;;;;;;-1.88;93.83;101786.69;5036300;28;20053;-65
2023/02/16 01:35:34;;;;;;;183.65;78.65;;;;;;;-1.91;93.18;101784.16;5038684;28;20227;-65
2023/02/16 01:38:00;;;;;;;179.48;78.80;;;;;;;-1.98;93.18;101772.81;5039644;28;20034;-65
2023/02/16 01:40:31;;;;;;;165.77;73.63;;;;;;;-1.89;93.81;101788.47;5040046;28;20059;-65
2023/02/16 01:43:14;;;;;;;181.95;76.20;;;;;;;-2.01;94.13;101766.72;5043249;28;20052;-65
2023/02/16 01:45:42;;;;;;;174.50;75.03;;;;;;;-1.95;94.14;101772.78;5042533;28;20474;-67
2023/02/16 01:48:20;;;;;;;168.55;76.55;;;;;;;-2.09;93.81;101747.59;5038619;28;20472;-67
2023/02/16 01:51:04;;;;;;;168.23;74.40;;;;;;;-1.97;93.94;101769.31;5039248;28;20039;-66
2023/02/16 01:53:38;;;;;;;171.35;74.07;;;;;;;-1.97;93.70;101771.94;5043054;28;20090;-64
2023/02/16 01:56:16;;;;;;;161.30;72.40;;;;;;;-2.01;94.38;101756.22;5034663;28;20029;-65
2023/02/16 01:58:47;;;;;;;165.95;72.35;;;;;;;-2.05;94.09;101742.28;5042197;28;20040;-65
2023/02/16 02:01:30;;;;;;;159.13;70.18;;;;;;;-2.01;94.24;101750.97;5043319;28;20028;-64
2023/02/16 02:06:40;;;;;;;;;;;;;;;-2.00;95.56;101752.72;5034732;28;20041;-66
2023/02/16 02:09:36;;;;;;;154.65;70.78;;;;;;;-2.01;95.20;101748.34;5049058;28;19924;-64
2023/02/16 02:12:22;;;;;;;149.68;68.07;;;;;;;-2.00;95.55;101755.34;5044852;28;20056;-65
2023/02/16 02:14:48;;;;;;;148.38;69.88;;;;;;;-2.07;95.20;101730.03;5040570;28;20033;-65
2023/02/16 02:17:17;;;;;;;153.68;68.80;;;;;;;-2.00;94.87;101743.06;5045339;28;20036;-65
2023/02/16 02:20:04;;;;;;;146.13;68.90;;;;;;;-2.03;95.08;101729.09;5033536;28;20037;-65
2023/02/16 02:26:12;;;;;;;155.27;68.30;;;;;;;-2.06;94.46;101734.41;5029225;28;20075;-66
2023/02/16 02:29:10;;;;;;;159.70;67.80;;;;;;;-2.06;94.81;101726.53;5032075;28;20033;-66
2023/02/16 02:31:51;;;;;;;142.20;64.90;;;;;;;-2.21;94.81;101708.31;5020388;28;20044;-66
2023/02/16 02:34:31;;;;;;;147.57;64.53;;;;;;;-2.12;94.39;101732.72;5043622;28;20028;-66
2023/02/16 02:37:13;;;;;;;139.73;65.13;;;;;;;-2.19;94.43;101723.19;5034137;28;20025;-66
2023/02/16 02:39:55;;;;;;;150.30;66.25;;;;;;;-2.12;94.07;101734.47;5032849;28;20025;-66
2023/02/16 02:42:30;;;;;;;144.80;66.68;;;;;;;-2.14;94.18;101738.88;5041677;28;20357;-72
2023/02/16 02:45:06;;;;;;;157.98;68.53;;;;;;;-2.17;94.27;101736.31;5039873;28;20455;-72
2023/02/16 02:47:44;;;;;;;165.50;73.60;;;;;;;-2.18;94.81;101739.81;5036162;28;20040;-71
2023/02/16 02:50:37;;;;;;;163.70;73.50;;;;;;;-2.15;94.56;101745.91;5031149;28;20029;-70
2023/02/16 02:53:09;;;;;;;170.18;78.47;;;;;;;-2.19;94.80;101740.72;5028075;28;20045;-72
2023/02/16 03:01:12;;;;;;;186.98;81.07;;;;;;;-2.26;94.06;101732.03;5036647;28;20052;-72
2023/02/16 03:03:44;;;;;;;170.98;79.93;;;;;;;-2.32;93.48;101724.25;5038170;28;20033;-72
2023/02/16 03:06:16;;;;;;;173.88;77.35;;;;;;;-2.32;93.08;101727.72;5036713;28;20039;-73
2023/02/16 03:08:45;;;;;;;169.05;80.05;;;;;;;-2.37;93.76;101720.81;5042936;28;20128;-72
2023/02/16 03:14:12;;;;;;;174.38;81.85;;;;;;;-2.38;94.05;101730.44;5041778;28;20118;-71
2023/02/16 03:16:45;;;;;;;174.15;80.18;;;;;;;-2.38;94.69;101734.84;5030884;28;20112;-71
2023/02/16 03:30:21;;;;;;;154.63;70.72;;;;;;;-2.48;94.42;101707.81;5040795;28;20060;-72
2023/02/16 03:32:47;;;;;;;159.38;73.07;;;;;;;-2.44;94.65;101708.66;5037353;28;20399;-72
2023/02/16 03:35:13;;;;;;;147.45;68.78;;;;;;;-2.45;94.73;101710.38;5031542;28;20021;-72
2023/02/16 03:37:40;;;;;;;142.77;66.80;;;;;;;-2.49;94.48;101705.19;5029828;28;20171;-72
2023/02/16 03:40:28;;;;;;;147.52;70.07;;;;;;;-2.45;95.01;101715.66;5032048;28;20041;-72
2023/02/16 03:42:59;;;;;;;145.85;69.88;;;;;;;-2.51;94.00;101707.84;5027330;28;20033;-64
2023/02/16 03:45:26;;;;;;;155.00;69.82;;;;;;;-2.49;93.93;101699.94;5031359;28;20032;-64
2023/02/16 03:47:52;;;;;;;141.05;67.63;;;;;;;-2.50;94.28;101699.09;5032230;28;20056;-64
2023/02/16 03:50:18;;;;;;;142.32;67.57;;;;;;;-2.63;94.67;101689.63;5047360;28;20602;-64
2023/02/16 03:52:43;;;;;;;141.52;67.28;;;;;;;-2.65;94.65;101690.53;5030133;28;20044;-65
2023/02/16 03:55:08;;;;;;;135.32;65.07;;;;;;;-2.52;94.29;101719.25;5028208;28;20032;-65
2023/02/16 03:57:34;;;;;;;133.68;63.35;;;;;;;-2.52;94.91;101707.84;5028502;28;20025;-65
2023/02/16 03:59:59;;;;;;;145.82;67.13;;;;;;;-2.62;94.67;101709.75;5031951;28;20136;-66
2023/02/16 04:02:27;;;;;;;151.25;69.20;;;;;;;-2.56;95.32;101719.28;5039280;28;20032;-66
2023/02/16 04:04:52;;;;;;;155.30;69.47;;;;;;;-2.62;95.82;101703.63;5035820;28;20069;-66
2023/02/16 04:07:18;;;;;;;143.57;69.35;;;;;;;-2.68;95.55;101690.56;5043476;28;20099;-66
2023/02/16 04:09:43;;;;;;;155.18;73.53;;;;;;;-2.71;95.03;101683.59;5030644;28;20048;-66
2023/02/16 04:14:55;;;;;;;163.07;72.75;;;;;;;-2.64;95.10;101708.03;5030212;28;20188;-65
2023/02/16 04:17:21;;;;;;;146.27;67.30;;;;;;;-2.75;94.63;101681.03;5031421;28;20147;-65
2023/02/16 04:19:46;;;;;;;175.15;73.40;;;;;;;-2.62;95.22;101709.75;5035703;28;20028;-71
2023/02/16 04:22:11;;;;;;;163.50;73.05;;;;;;;-2.67;94.59;101706.28;5041611;28;20021;-71
2023/02/16 04:24:37;;;;;;;165.70;76.53;;;;;;;-2.67;94.04;101702.81;5035735;28;20038;-71
2023/02/16 04:27:03;;;;;;;156.05;74.60;;;;;;;-2.75;94.55;101702.03;5041551;28;20158;-71
2023/02/16 04:29:28;;;;;;;165.10;76.25;;;;;;;-2.72;94.61;101705.50;5037130;28;20084;-73
2023/02/16 04:31:54;;;;;;;170.18;77.30;;;;;;;-2.73;95.01;101705.50;5038665;28;20029;-72
2023/02/16 04:34:20;;;;;;;173.95;76.43;;;;;;;-2.77;94.88;101698.56;5032770;28;20039;-71
2023/02/16 04:36:45;;;;;;;152.82;75.28;;;;;;;-2.90;94.59;101670.72;5034687;28;20479;-72
2023/02/16 04:39:11;;;;;;;166.38;76.28;;;;;;;-2.85;95.24;101690.78;5034635;28;20095;-71
2023/02/16 04:41:36;;;;;;;164.52;76.32;;;;;;;-2.94;94.94;101685.63;5034449;28;20080;-71
2023/02/16 04:44:02;;;;;;;161.75;74.07;;;;;;;-2.89;94.24;101691.72;5036890;28;20471;-71
2023/02/16 04:46:27;;;;;;;160.55;73.47;;;;;;;-2.95;94.23;101676.03;5037296;28;20032;-71
2023/02/16 04:48:53;;;;;;;160.85;74.28;;;;;;;-2.86;94.26;101694.28;5036890;28;20033;-73
2023/02/16 04:51:18;;;;;;;162.05;74.28;;;;;;;-2.86;94.80;101696.91;5038531;28;20468;-72
2023/02/16 04:53:44;;;;;;;156.43;71.95;;;;;;;-2.86;94.71;101694.28;5041683;28;20025;-72
2023/02/16 04:56:11;;;;;;;156.55;70.53;;;;;;;-2.90;95.22;101691.72;5043027;28;20037;-72
2023/02/16 04:58:37;;;;;;;159.90;73.28;;;;;;;-2.92;95.12;101681.25;5037787;28;20353;-72
2023/02/16 05:01:03;;;;;;;161.00;72.93;;;;;;;-2.94;95.00;101685.63;5037037;28;20044;-72
2023/02/16 05:03:28;;;;;;;171.40;77.07;;;;;;;-2.96;95.16;101679.50;5043443;28;20036;-73
2023/02/16 05:05:54;;;;;;;165.38;75.50;;;;;;;-2.93;94.80;101695.22;5043172;28;20506;-72
2023/02/16 05:08:19;;;;;;;176.13;79.53;;;;;;;-2.92;95.20;101698.72;5034978;28;20069;-72
2023/02/16 05:14:40;;;;;;;182.27;82.57;;;;;;;-2.92;95.98;101699.59;5034664;28;20037;-72
2023/02/16 05:16:14;;;;;;;196.55;83.72;;;;;;;-3.01;95.55;101699.72;5034510;28;20036;-72
2023/02/16 05:18:39;;;;;;;184.10;81.30;;;;;;;-2.99;95.72;101703.19;5043017;28;20041;-71
2023/02/16 05:23:49;;;;;;;193.82;82.10;;;;;;;-3.02;94.28;101712.84;5041016;28;20039;-72
2023/02/16 05:26:14;;;;;;;192.13;82.65;;;;;;;-3.12;94.02;101695.47;5038668;28;20116;-72
2023/02/16 05:28:40;;;;;;;207.07;89.40;;;;;;;-3.07;94.16;101715.50;5037492;28;20036;-73
2023/02/16 05:31:05;;;;;;;199.82;89.75;;;;;;;-3.07;94.31;101717.25;5035299;28;20383;-73
2023/02/16 05:33:31;;;;;;;195.23;86.80;;;;;;;-3.12;94.29;101708.56;5041649;28;20031;-72
2023/02/16 05:35:56;;;;;;;209.65;89.32;;;;;;;-3.22;94.65;101694.66;5040949;28;20033;-73
2023/02/16 05:38:22;;;;;;;203.52;89.20;;;;;;;-3.13;95.17;101712.94;5036265;28;20029;-72
2023/02/16 05:40:47;;;;;;;194.77;87.47;;;;;;;-3.19;94.62;101710.38;5036003;28;20039;-72
2023/02/16 05:43:13;;;;;;;206.80;88.10;;;;;;;-3.23;94.88;101706.06;5044928;28;20028;-72
2023/02/16 05:45:38;;;;;;;193.43;83.78;;;;;;;-3.16;94.88;101715.59;5040607;28;20033;-73
2023/02/16 05:48:04;;;;;;;190.23;83.80;;;;;;;-3.18;94.55;101714.75;5039040;28;20086;-73
2023/02/16 05:50:29;;;;;;;195.85;86.82;;;;;;;-3.22;94.99;101709.56;5032716;28;20471;-72
2023/02/16 05:52:54;;;;;;;196.75;88.50;;;;;;;-3.22;94.74;101715.66;5036863;28;20568;-71
2023/02/16 05:55:20;;;;;;;190.88;86.38;;;;;;;-3.24;94.70;101709.56;5037462;28;20055;-74
2023/02/16 05:57:45;;;;;;;209.13;90.53;;;;;;;-3.18;94.67;101733.13;5037858;28;20038;-71
2023/02/16 06:00:11;;;;;;;197.55;85.05;;;;;;;-3.21;94.93;101727.91;5038776;28;20364;-72
2023/02/16 06:02:37;;;;;;;194.82;86.18;;;;;;;-3.20;94.73;101719.13;5028220;28;20061;-72
2023/02/16 06:05:02;;;;;;;200.73;87.95;;;;;;;-3.17;94.90;101733.97;5033155;28;20502;-72
2023/02/16 06:07:28;;;;;;;213.18;91.35;;;;;;;-3.15;95.48;101738.34;5038906;28;20112;-72
2023/02/16 06:09:53;;;;;;;205.05;91.18;;;;;;;-3.10;96.26;101735.66;5040221;28;20048;-72
2023/02/16 06:12:19;;;;;;;199.60;88.72;;;;;;;-3.11;96.49;101729.56;5038988;28;20028;-72
2023/02/16 06:14:44;;;;;;;212.43;91.38;;;;;;;-3.10;96.18;101726.03;5041573;28;20017;-73
2023/02/16 06:17:10;;;;;;;211.63;93.45;;;;;;;-3.06;96.19;101726.88;5027696;28;20029;-72
2023/02/16 06:19:35;;;;;;;214.35;98.55;;;;;;;-3.12;96.27;101717.31;5030914;28;20025;-72
2023/02/16 06:22:00;;;;;;;210.20;93.15;;;;;;;-3.02;96.29;101733.84;5037366;28;20050;-72
2023/02/16 06:24:26;;;;;;;227.20;96.15;;;;;;;-3.00;96.48;101735.53;5034419;28;20119;-72
2023/02/16 06:26:51;;;;;;;230.52;100.68;;;;;;;-3.04;97.37;101719.84;5031277;28;20084;-66
2023/02/16 06:29:17;;;;;;;263.13;106.50;;;;;;;-3.08;97.17;101707.66;5037591;28;20033;-66
2023/02/16 06:31:42;;;;;;;258.95;112.43;;;;;;;-2.93;98.34;101725.88;5039478;28;20134;-66
2023/02/16 06:34:08;;;;;;;261.98;110.97;;;;;;;-2.81;99.52;101744.09;5034723;28;20098;-66
2023/02/16 06:36:33;;;;;;;264.13;107.25;;;;;;;-2.80;100.00;101737.97;5044935;28;20033;-66
2023/02/16 06:38:58;;;;;;;265.20;108.88;;;;;;;-2.76;100.00;101737.03;5041657;28;20037;-66
2023/02/16 06:41:30;;;;;;;260.60;111.35;;;;;;;-2.77;100.00;101723.03;5035466;28;20108;-72
2023/02/16 06:44:00;;;;;;;267.20;110.45;;;;;;;-2.67;100.00;101729.91;5036313;28;20028;-72
2023/02/16 06:46:26;;;;;;;261.90;111.72;;;;;;;-2.61;100.00;101724.59;5031452;28;20137;-72
2023/02/16 06:48:51;;;;;;;250.15;109.85;;;;;;;-2.52;100.00;101724.50;5039637;28;20088;-72
2023/02/16 06:51:17;;;;;;;246.48;105.60;;;;;;;-2.49;100.00;101721.84;5035016;28;20072;-72
2023/02/16 06:53:43;;;;;;;260.75;109.63;;;;;;;-2.44;100.00;101720.03;5028769;28;20033;-66
2023/02/16 06:56:08;;;;;;;256.92;109.10;;;;;;;-2.35;100.00;101714.63;5028286;28;20452;-67
2023/02/16 06:58:34;;;;;;;262.65;110.72;;;;;;;-2.32;100.00;101709.34;5038618;28;20395;-73
2023/02/16 07:00:59;;;;;;;249.02;109.90;;;;;;;-2.29;100.00;101694.44;5034846;28;20526;-73
2023/02/16 07:03:25;;;;;;;263.52;109.03;;;;;;;-2.09;100.00;101716.94;5031541;28;20388;-72
2023/02/16 07:05:50;;;;;;;244.10;104.57;;;;;;;-1.93;100.00;101714.94;5036986;28;20387;-73
2023/02/16 07:08:16;;;;;;;253.65;103.47;;;;;;;-1.91;100.00;101694.75;5039670;28;20048;-72
2023/02/16 07:10:43;;;;;;;245.63;105.68;;;;;;;-1.72;100.00;101715.47;5027542;28;20073;-73
2023/02/16 07:13:09;;;;;;;237.35;104.78;;;;;;;-1.72;100.00;101696.19;5037985;28;20133;-73
2023/02/16 07:15:34;;;;;;;216.02;100.03;;;;;;;-1.55;100.00;101697.66;5032315;28;20052;-73
2023/02/16 07:18:00;;;;;;;219.48;98.30;;;;;;;-1.45;100.00;101701.00;5039960;28;20084;-72
2023/02/16 07:20:26;;;;;;;215.45;97.53;;;;;;;-1.28;100.00;101704.22;5033404;28;20021;-72
2023/02/16 07:22:52;;;;;;;234.98;103.28;;;;;;;-1.10;100.00;101711.78;5045934;28;20123;-72
2023/02/16 07:25:17;;;;;;;225.63;97.22;;;;;;;-0.97;100.00;101701.00;5040759;28;20096;-71
2023/02/16 07:27:43;;;;;;;215.25;97.13;;;;;;;-0.71;100.00;101705.78;5040256;28;20120;-72
2023/02/16 07:30:09;;;;;;;223.60;101.68;;;;;;;-0.56;100.00;101702.81;5037102;28;20037;-72
2023/02/16 07:32:35;;;;;;;203.40;94.90;;;;;;;-0.38;100.00;101699.81;5038446;28;20107;-72
2023/02/16 07:35:01;;;;;;;205.68;90.57;;;;;;;-0.20;100.00;101702.91;5038380;28;20403;-72
2023/02/16 07:37:26;;;;;;;195.05;84.93;;;;;;;-0.07;100.00;101699.09;5039180;28;20032;-72
2023/02/16 07:39:52;;;;;;;157.88;75.22;;;;;;;0.17;100.00;101697.66;5039702;28;20051;-73
2023/02/16 07:42:18;;;;;;;158.13;71.57;;;;;;;0.39;100.00;101692.72;5040001;28;20112;-73
2023/02/16 07:44:44;;;;;;;152.25;68.95;;;;;;;0.52;100.00;101683.63;5042703;28;20554;-73
2023/02/16 07:47:09;;;;;;;148.57;67.03;;;;;;;0.74;100.00;101679.53;5039639;28;20029;-73
2023/02/16 07:49:35;;;;;;;145.20;70.43;;;;;;;0.94;100.00;101679.84;5035419;28;20100;-73
2023/02/16 07:52:00;;;;;;;155.32;67.55;;;;;;;1.15;100.00;101681.91;5040934;28;20489;-73
2023/02/16 07:54:26;;;;;;;151.60;68.82;;;;;;;1.34;100.00;101683.13;5036697;28;20048;-73
2023/02/16 07:56:51;;;;;;;160.52;72.30;;;;;;;1.47;100.00;101669.50;5040778;28;20056;-73
2023/02/16 07:59:17;;;;;;;153.68;70.90;;;;;;;1.73;100.00;101672.25;5032410;28;20029;-73
2023/02/16 08:01:42;;;;;;;154.63;73.05;;;;;;;1.83;100.00;101663.13;5044033;28;20032;-73
2023/02/16 08:04:07;;;;;;;143.40;66.82;;;;;;;2.12;100.00;101678.94;5036994;28;20092;-73
2023/02/16 08:06:34;;;;;;;141.20;65.47;;;;;;;2.30;100.00;101672.22;5037264;28;20021;-73
2023/02/16 08:08:59;;;;;;;135.63;65.13;;;;;;;2.52;100.00;101681.19;5041493;28;20128;-74
2023/02/16 08:11:25;;;;;;;137.82;67.05;;;;;;;2.71;100.00;101668.19;5031692;28;20111;-73
2023/02/16 08:13:51;;;;;;;128.20;62.65;;;;;;;3.09;100.00;101679.16;5035079;28;20037;-74
2023/02/16 08:16:22;;;;;;;124.13;58.92;;;;;;;3.40;100.00;101681.56;5032411;28;20025;-67
2023/02/16 08:18:47;;;;;;;101.97;55.03;;;;;;;3.63;100.00;101681.56;5032103;28;20587;-67
2023/02/16 08:21:15;;;;;;;102.25;53.45;;;;;;;3.75;100.00;101678.47;5027686;28;20120;-66
2023/02/16 08:23:46;;;;;;;95.78;51.80;;;;;;;3.85;100.00;101685.16;5030438;28;20021;-66
2023/02/16 08:26:16;;;;;;;100.38;51.00;;;;;;;3.79;100.00;101661.50;5028384;28;20070;-66
2023/02/16 08:28:45;;;;;;;100.03;51.05;;;;;;;3.95;100.00;101678.56;5039341;28;20090;-66
2023/02/16 08:31:19;;;;;;;93.78;49.17;;;;;;;3.99;100.00;101672.19;5031678;28;20093;-66
2023/02/16 08:33:46;;;;;;;95.93;49.78;;;;;;;3.96;100.00;101649.31;5031041;28;20468;-67
2023/02/16 08:36:33;;;;;;;103.15;51.35;;;;;;;4.06;99.91;101655.97;5034192;28;20384;-67
2023/02/16 08:39:00;;;;;;;91.50;49.17;;;;;;;4.05;99.72;101646.28;5032615;28;20037;-66
2023/02/16 08:41:34;;;;;;;96.32;50.13;;;;;;;4.33;99.34;101676.09;5035550;28;20060;-67
2023/02/16 08:44:01;;;;;;;97.93;51.47;;;;;;;4.35;99.32;101662.75;5037802;28;20036;-67
2023/02/16 08:46:28;;;;;;;90.95;50.35;;;;;;;4.34;99.01;101658.38;5043148;28;20116;-66
2023/02/16 08:48:58;;;;;;;96.32;49.35;;;;;;;4.23;99.00;101640.22;5037899;28;20037;-66
2023/02/16 08:51:24;;;;;;;86.07;47.40;;;;;;;4.46;98.48;101660.53;5040209;28;20026;-66
2023/02/16 08:53:51;;;;;;;93.18;48.55;;;;;;;4.56;98.29;101661.88;5037035;28;20388;-66
2023/02/16 08:56:18;;;;;;;84.70;46.33;;;;;;;4.63;98.30;101660.69;5040379;28;20025;-67
2023/02/16 08:58:45;;;;;;;89.18;47.42;;;;;;;4.69;98.12;101663.97;5038751;28;20048;-67
2023/02/16 09:01:12;;;;;;;84.68;47.40;;;;;;;4.87;97.88;101672.91;5038478;28;20387;-66
2023/02/16 09:03:43;;;;;;;81.55;45.78;;;;;;;4.95;97.72;101664.63;5029043;28;20248;-66
2023/02/16 09:06:11;;;;;;;85.63;46.60;;;;;;;4.93;96.92;101650.56;5033027;28;20029;-66
2023/02/16 09:08:36;;;;;;;83.60;45.80;;;;;;;5.11;97.14;101661.25;5032647;28;20040;-67
2023/02/16 09:11:08;;;;;;;83.07;46.70;;;;;;;5.31;96.75;101673.63;5033882;28;20491;-66
2023/02/16 09:13:34;;;;;;;79.70;45.40;;;;;;;5.43;95.78;101681.06;5036121;28;20086;-66
2023/02/16 09:16:08;;;;;;;78.43;45.28;;;;;;;5.59;95.25;101679.44;5036441;28;20102;-67
2023/02/16 09:18:36;;;;;;;82.68;45.85;;;;;;;5.63;94.46;101662.41;5036703;28;20059;-67
2023/02/16 09:21:22;;;;;;;83.85;46.35;;;;;;;5.69;93.97;101649.69;5033711;28;20395;-67
2023/02/16 09:23:49;;;;;;;81.85;46.47;;;;;;;5.88;93.65;101673.69;5039644;28;20033;-68
2023/02/16 09:26:16;;;;;;;77.35;45.42;;;;;;;5.95;93.46;101668.00;5035122;28;20356;-68
2023/02/16 09:28:43;;;;;;;75.72;43.13;;;;;;;6.01;92.45;101653.53;5025468;28;20033;-67
2023/02/16 09:31:10;;;;;;;73.15;41.72;;;;;;;6.27;90.87;101671.78;5041821;28;20040;-72
2023/02/16 09:33:36;;;;;;;75.80;42.03;;;;;;;6.28;89.52;101661.03;5043297;28;20534;-73
2023/02/16 09:36:06;;;;;;;70.28;40.42;;;;;;;6.50;88.57;101674.16;5041904;28;20039;-72
2023/02/16 09:38:32;;;;;;;67.35;39.90;;;;;;;6.52;87.85;101662.47;5039402;28;20880;-73
2023/02/16 09:40:59;;;;;;;62.00;37.30;;;;;;;6.71;86.94;101673.94;5037842;28;20033;-73
2023/02/16 09:43:44;;;;;;;66.30;38.20;;;;;;;6.81;85.99;101658.38;5037266;28;20025;-73
2023/02/16 09:46:12;;;;;;;65.63;37.70;;;;;;;7.04;84.75;101680.22;5034283;28;20033;-74
2023/02/16 09:48:42;;;;;;;61.60;34.83;;;;;;;7.22;82.23;101681.09;5045307;28;20025;-74
2023/02/16 09:51:30;;;;;;;64.05;36.83;;;;;;;7.36;80.79;101669.69;5040712;28;20029;-74
2023/02/16 09:54:20;;;;;;;61.60;35.65;;;;;;;7.70;79.14;101675.78;5027453;28;20037;-74
2023/02/16 09:56:53;;;;;;;57.45;34.08;;;;;;;8.05;77.11;101660.50;5031084;28;20378;-74
2023/02/16 09:59:32;;;;;;;61.43;34.30;;;;;;;8.61;74.01;101660.84;5035441;28;20033;-73
2023/02/16 10:02:16;;;;;;;61.22;34.78;;;;;;;9.90;69.38;101665.31;5037293;28;20041;-74
2023/02/16 10:05:12;;;;;;;62.13;36.33;;;;;;;11.85;61.25;101667.13;5034836;28;20021;-73
2023/02/16 10:08:21;;;;;;;53.13;34.33;;;;;;;13.97;53.15;101662.34;5042332;28;20053;-74
2023/02/16 10:10:55;;;;;;;50.63;34.50;;;;;;;15.50;47.34;101667.34;4971098;28;20077;-74
2023/02/16 10:13:32;;;;;;;48.83;33.92;;;;;;;16.68;44.04;101652.13;5033211;28;20041;-74
2023/02/16 10:16:00;;;;;;;49.83;35.28;;;;;;;17.16;42.74;101658.41;5037286;28;20032;-74
2023/02/16 10:18:38;;;;;;;48.45;35.20;;;;;;;17.05;42.57;101656.69;5038282;28;20026;-73
2023/02/16 10:21:12;;;;;;;50.67;35.10;;;;;;;16.86;42.59;101653.97;5038344;28;20039;-74
2023/02/16 10:23:46;;;;;;;;;;;;;;;16.47;43.29;101648.69;5038118;28;20025;-75
2023/02/16 10:26:14;;;;;;;50.25;36.35;;;;;;;16.28;44.07;101649.44;5038488;28;19920;-73
2023/02/16 10:28:57;;;;;;;50.58;35.72;;;;;;;15.90;44.15;101658.28;5044762;28;20056;-74
2023/02/16 10:31:42;;;;;;;49.50;34.85;;;;;;;15.51;44.53;101645.56;5038224;28;20037;-74
2023/02/16 10:34:07;;;;;;;;;;;;;;;14.75;46.90;101639.63;5029596;28;20025;-73
2023/02/16 10:37:10;;;;;;;49.92;34.33;;;;;;;14.15;48.65;101636.56;5055535;28;19924;-74
2023/02/16 10:39:51;;;;;;;48.13;33.00;;;;;;;13.57;48.99;101626.03;5037196;28;20031;-73
2023/02/16 10:42:31;;;;;;;44.00;30.85;;;;;;;13.27;49.63;101628.47;5034470;28;20029;-75
2023/02/16 10:45:12;;;;;;;46.00;32.70;;;;;;;12.77;51.94;101628.81;5037108;28;20036;-75
2023/02/16 10:47:41;;;;;;;45.90;31.88;;;;;;;12.41;52.88;101621.66;5038762;28;20025;-75
2023/02/16 10:50:19;;;;;;;47.08;31.33;;;;;;;12.21;53.02;101619.59;5042597;28;20025;-74
2023/02/16 10:52:45;;;;;;;45.42;31.38;;;;;;;11.98;53.52;101619.56;5040237;28;20067;-75
2023/02/16 10:55:12;;;;;;;44.45;31.08;;;;;;;11.94;53.58;101620.75;5035008;28;20102;-75
2023/02/16 10:57:38;;;;;;;47.70;31.35;;;;;;;11.52;54.50;101598.66;5041206;28;20131;-75
2023/02/16 11:00:11;;;;;;;45.25;31.20;;;;;;;11.30;56.26;101611.91;5040832;28;20364;-75
2023/02/16 11:02:50;;;;;;;46.13;30.77;;;;;;;11.11;56.62;101621.34;5043083;28;20112;-75
2023/02/16 11:05:26;;;;;;;50.75;33.33;;;;;;;10.95;57.77;101608.13;5040889;28;20044;-75
2023/02/16 11:07:53;;;;;;;46.33;31.05;;;;;;;10.85;57.92;101612.41;5038120;28;20036;-74
2023/02/16 11:10:21;;;;;;;47.40;31.67;;;;;;;10.63;58.79;101596.06;5031780;28;20120;-75
2023/02/16 11:12:56;;;;;;;50.97;31.05;;;;;;;10.53;59.41;101597.63;5039807;28;20116;-73
2023/02/16 11:15:23;;;;;;;49.00;30.98;;;;;;;10.43;59.68;101591.16;5034197;28;20471;-73
2023/02/16 11:17:59;;;;;;;45.10;29.88;;;;;;;10.38;59.91;101593.28;5041930;28;20036;-74
2023/02/16 11:20:49;;;;;;;50.55;32.20;;;;;;;10.35;60.55;101593.50;5040692;28;20494;-75
2023/02/16 11:23:38;;;;;;;46.42;30.25;;;;;;;10.36;60.56;101592.56;5033325;28;20032;-74
2023/02/16 11:26:10;;;;;;;45.75;30.95;;;;;;;10.35;60.70;101596.16;5041608;28;20379;-74
2023/02/16 11:28:43;;;;;;;45.30;30.58;;;;;;;10.29;60.90;101585.84;5041022;28;20040;-74
2023/02/16 11:31:08;;;;;;;45.33;29.92;;;;;;;10.22;60.94;101578.34;5035451;28;20037;-74
2023/02/16 11:33:36;;;;;;;46.38;30.65;;;;;;;10.17;61.44;101575.09;5034370;28;20021;-75
2023/02/16 11:36:17;;;;;;;42.75;28.63;;;;;;;10.20;61.47;101581.13;5038458;28;20022;-75
2023/02/16 11:38:56;;;;;;;42.75;28.33;;;;;;;10.43;59.08;101575.09;5037438;28;20051;-74
2023/02/16 11:41:24;;;;;;;43.22;28.02;;;;;;;10.54;59.15;101575.19;5035884;28;20151;-75
2023/02/16 11:43:49;;;;;;;49.75;30.13;;;;;;;10.58;58.82;101578.56;5030532;28;20383;-74
2023/02/16 11:46:19;;;;;;;48.75;28.75;;;;;;;10.45;58.94;101573.13;5031896;28;20033;-74
2023/02/16 11:48:46;;;;;;;44.90;29.90;;;;;;;10.32;59.89;101566.03;5035489;28;20446;-75
2023/02/16 11:51:14;;;;;;;48.58;30.75;;;;;;;10.34;60.57;101578.38;5037462;28;20029;-75
2023/02/16 11:53:42;;;;;;;47.80;29.52;;;;;;;10.39;59.68;101556.59;5039859;28;20025;-76
2023/02/16 11:56:23;;;;;;;49.00;32.40;;;;;;;10.41;59.50;101547.50;5030482;28;20152;-75
2023/02/16 11:59:21;;;;;;;49.28;31.55;;;;;;;10.32;60.93;101545.41;5036908;28;20037;-75